Wes Sellars — WDF9302 — position and weather

sailwx.info

Track history (hours):
 
Tides and Currents Weather Stations Pressure Air Temp Water Temp Dewpoint Dewpoint Depression Visibility Wind Speed Wind Dir Waves Ship Positions

Wes Sellars

Owner: Florida Marine, LLC, Mandeville, LA. More information available from US FCC via Universal Licensing System and Coast Guard Vessel Documentation Center.

Last reported at 2017-Feb-24 10:33 UTC. Time now 2017-Feb-24 10:44 UTC.
Position N 30°04' W 093°21'.

Length 27 m.

Type: Towing. MMSI: 367503760.

Date/timePositionNaut miles runAvg speedWind from/ knotsBaromVisibWave heightAir tempDewpointWater temp
2017-Feb-24 10:33N 30°04' W 093°21'0 0.0
2017-Feb-24 09:33N 30°04' W 093°21'0 0.0
2017-Feb-24 08:33N 30°04' W 093°21'0 0.0
2017-Feb-24 07:33N 30°04' W 093°21'0 0.0
2017-Feb-24 06:33N 30°04' W 093°21'3 1.1
2017-Feb-24 04:11N 30°06' W 093°18'7 4.0
2017-Feb-24 02:33N 30°04' W 093°25'12 6.1
2017-Feb-24 00:33N 30°04' W 093°40'13 1.6
2017-Feb-23 16:05N 29°59' W 093°54'2 4.2
2017-Feb-23 15:32N 29°59' W 093°52'0 0.2
2017-Feb-23 12:33N 29°58' W 093°52'0 0.0
2017-Feb-23 11:33N 29°58' W 093°52'0 0.0
2017-Feb-23 10:33N 29°58' W 093°52'0 0.0
2017-Feb-23 09:33N 29°58' W 093°52'1 0.5
2017-Feb-23 07:32N 29°57' W 093°52'1 1.0
2017-Feb-23 06:33N 29°58' W 093°52'0 0.0
2017-Feb-23 05:33N 29°58' W 093°52'4 3.8
2017-Feb-23 04:33N 29°55' W 093°53'55 5.8
2017-Feb-22 19:09N 29°24' W 094°45'3 3.5
2017-Feb-22 18:22N 29°22' W 094°48'7 8.0
2017-Feb-22 17:33N 29°28' W 094°51'8 8.4
2017-Feb-22 16:33N 29°36' W 094°56'8 8.2
2017-Feb-22 15:33N 29°43' W 095°01'5 5.2
2017-Feb-22 14:33N 29°47' W 095°04'0 0.0
2017-Feb-22 13:33N 29°47' W 095°04'0 0.0
2017-Feb-22 12:29N 29°47' W 095°04'2 2.3
2017-Feb-22 11:33N 29°45' W 095°06'1 0.6
2017-Feb-22 10:33N 29°46' W 095°06'0 0.0
2017-Feb-22 02:29N 29°46' W 095°06'0 0.0
2017-Feb-22 01:29N 29°46' W 095°06'0 0.0
2017-Feb-22 00:29N 29°46' W 095°06'0 0.0
2017-Feb-21 23:30N 29°46' W 095°06'0 0.0
2017-Feb-21 22:31N 29°46' W 095°06'0 0.0
2017-Feb-21 21:30N 29°46' W 095°06'0 0.0
2017-Feb-21 20:30N 29°46' W 095°06'0 0.0
2017-Feb-21 19:29N 29°46' W 095°06'0 0.0
2017-Feb-21 18:32N 29°46' W 095°06'0 0.0
2017-Feb-21 17:32N 29°46' W 095°06'0 0.1
2017-Feb-21 16:32N 29°46' W 095°06'2 1.7
2017-Feb-21 15:33N 29°47' W 095°05'0 0.0
2017-Feb-21 14:33N 29°47' W 095°05'1 0.6
2017-Feb-21 13:33N 29°47' W 095°04'0 0.2
2017-Feb-21 12:12N 29°47' W 095°04'3 0.2
2017-Feb-20 21:20N 29°46' W 095°06'0 0.0
2017-Feb-20 20:20N 29°46' W 095°06'0 0.0
2017-Feb-20 19:29N 29°46' W 095°06'0 0.0
2017-Feb-20 18:33N 29°46' W 095°06'1 0.8
2017-Feb-20 17:33N 29°46' W 095°05'0 0.2
2017-Feb-20 16:33N 29°46' W 095°05'1 1.3
2017-Feb-20 15:33N 29°47' W 095°04'6 5.5
2017-Feb-20 14:33N 29°45' W 095°10'2 0.2
2017-Feb-20 02:25N 29°44' W 095°12'0 0.1
2017-Feb-20 01:31N 29°44' W 095°12'0 0.0
2017-Feb-20 00:32N 29°44' W 095°12'0 0.0
2017-Feb-19 23:33N 29°44' W 095°12'0 0.0
2017-Feb-19 22:23N 29°44' W 095°12'0 0.0
2017-Feb-19 21:27N 29°44' W 095°12'0 0.0
2017-Feb-19 20:26N 29°44' W 095°12'0 0.0
2017-Feb-19 19:32N 29°44' W 095°12'0 0.0
2017-Feb-19 16:32N 29°44' W 095°12'0 0.0
2017-Feb-18 21:25N 29°44' W 095°12'0 0.0
2017-Feb-18 20:32N 29°44' W 095°12'0 0.0
2017-Feb-18 19:19N 29°44' W 095°12'0 0.0
2017-Feb-18 18:06N 29°44' W 095°12'0 0.0
2017-Feb-18 17:03N 29°44' W 095°12'0 0.0
2017-Feb-18 14:23N 29°44' W 095°12'0 0.0
2017-Feb-18 13:22N 29°44' W 095°12'31 2.0
2017-Feb-17 21:33N 29°23' W 094°46'1 1.4
2017-Feb-17 20:33N 29°24' W 094°45'0 0.0
2017-Feb-17 19:32N 29°24' W 094°45'0 0.0
2017-Feb-17 18:32N 29°24' W 094°45'0 0.0
2017-Feb-17 17:32N 29°24' W 094°45'0 0.0
2017-Feb-17 16:12N 29°24' W 094°45'0 0.0
2017-Feb-17 15:33N 29°24' W 094°45'0 0.0
2017-Feb-17 14:33N 29°24' W 094°45'0 0.0
2017-Feb-17 13:33N 29°24' W 094°45'67 4.4
2017-Feb-16 22:33N 30°03' W 093°43'5 5.3
2017-Feb-16 21:33N 30°04' W 093°37'5 5.0
2017-Feb-16 20:33N 30°04' W 093°31'5 5.2
2017-Feb-16 19:33N 30°04' W 093°25'4 4.1
2017-Feb-16 18:33N 30°05' W 093°20'4 3.6
2017-Feb-16 17:33N 30°08' W 093°20'0 0.1
2017-Feb-16 16:33N 30°08' W 093°19'0 0.0
2017-Feb-16 15:33N 30°08' W 093°19'0 0.0
2017-Feb-16 14:33N 30°08' W 093°19'0 0.0
2017-Feb-16 13:33N 30°08' W 093°19'0 0.0
2017-Feb-16 12:33N 30°08' W 093°19'0 0.0
2017-Feb-16 11:33N 30°08' W 093°19'0 0.0
2017-Feb-16 10:33N 30°08' W 093°19'0 0.0
2017-Feb-16 09:33N 30°08' W 093°19'0 0.0
2017-Feb-16 08:33N 30°08' W 093°19'0 0.0
2017-Feb-16 07:33N 30°08' W 093°19'0 0.0
2017-Feb-16 06:33N 30°08' W 093°19'0 0.0
2017-Feb-16 05:33N 30°08' W 093°19'0 0.0
2017-Feb-16 04:33N 30°08' W 093°19'0 0.0
2017-Feb-16 03:33N 30°08' W 093°19'0 0.0
2017-Feb-16 02:33N 30°08' W 093°19'0 0.0
2017-Feb-16 01:33N 30°08' W 093°19'0 0.0
2017-Feb-16 00:33N 30°08' W 093°19'0 0.0
2017-Feb-15 23:33N 30°08' W 093°19'0 0.0
2017-Feb-15 22:33N 30°08' W 093°19'0 0.0
2017-Feb-15 21:33N 30°08' W 093°19'0 0.0
2017-Feb-15 20:33N 30°08' W 093°19'0 0.0
2017-Feb-15 19:33N 30°08' W 093°19'0 0.1
2017-Feb-15 18:33N 30°08' W 093°19'0 0.0
2017-Feb-15 17:33N 30°08' W 093°19'0 0.0
2017-Feb-15 16:33N 30°08' W 093°19'0 0.0
2017-Feb-15 15:33N 30°08' W 093°19'4 3.7
2017-Feb-15 14:33N 30°05' W 093°20'0 0.0
2017-Feb-15 13:33N 30°05' W 093°20'0 0.0
2017-Feb-15 12:33N 30°05' W 093°20'0 0.0
2017-Feb-15 11:33N 30°05' W 093°20'0 0.0
2017-Feb-15 10:33N 30°05' W 093°20'0 0.0
2017-Feb-15 09:33N 30°05' W 093°20'0 0.0
2017-Feb-15 08:33N 30°05' W 093°20'0 0.0
2017-Feb-15 07:33N 30°05' W 093°20'0 0.0
2017-Feb-15 06:33N 30°05' W 093°20'0 0.0
2017-Feb-15 05:33N 30°05' W 093°20'0 0.0
2017-Feb-15 04:33N 30°05' W 093°20'0 0.0
2017-Feb-15 03:33N 30°05' W 093°20'0 0.0
2017-Feb-15 02:33N 30°05' W 093°20'0 0.0
2017-Feb-15 01:33N 30°05' W 093°20'2 2.5
2017-Feb-15 00:33N 30°06' W 093°18'2 1.8
2017-Feb-14 23:33N 30°05' W 093°20'1 1.4
2017-Feb-14 22:33N 30°06' W 093°19'0 0.2
2017-Feb-14 21:33N 30°06' W 093°19'2 1.9
2017-Feb-14 20:33N 30°05' W 093°17'0 0.4
2017-Feb-14 19:33N 30°05' W 093°17'0 0.2
2017-Feb-14 18:33N 30°05' W 093°17'2 2.2
2017-Feb-14 17:33N 30°03' W 093°16'5 4.6
2017-Feb-14 16:33N 29°59' W 093°12'5 4.7
2017-Feb-14 15:33N 29°56' W 093°08'5 4.8
2017-Feb-14 14:33N 29°56' W 093°03'  
Track history (hours):
 
Tides and Currents Weather Stations Pressure Air Temp Water Temp Dewpoint Dewpoint Depression Visibility Wind Speed Wind Dir Waves Ship Positions

Wes Sellars

Owner: Florida Marine, LLC, Mandeville, LA. More information available from US FCC via Universal Licensing System and Coast Guard Vessel Documentation Center.

Last reported at 2017-Feb-24 10:33 UTC. Time now 2017-Feb-24 10:44 UTC.
Position N 30°04' W 093°21'.

Length 27 m.

Type: Towing. MMSI: 367503760.

Date/timePositionNaut miles runAvg speedWind from/ knotsBaromVisibWave heightAir tempDewpointWater temp
2017-Feb-24 10:33N 30°04' W 093°21'0 0.0
2017-Feb-24 09:33N 30°04' W 093°21'0 0.0
2017-Feb-24 08:33N 30°04' W 093°21'0 0.0
2017-Feb-24 07:33N 30°04' W 093°21'0 0.0
2017-Feb-24 06:33N 30°04' W 093°21'3 1.1
2017-Feb-24 04:11N 30°06' W 093°18'7 4.0
2017-Feb-24 02:33N 30°04' W 093°25'12 6.1
2017-Feb-24 00:33N 30°04' W 093°40'13 1.6
2017-Feb-23 16:05N 29°59' W 093°54'2 4.2
2017-Feb-23 15:32N 29°59' W 093°52'0 0.2
2017-Feb-23 12:33N 29°58' W 093°52'0 0.0
2017-Feb-23 11:33N 29°58' W 093°52'0 0.0
2017-Feb-23 10:33N 29°58' W 093°52'0 0.0
2017-Feb-23 09:33N 29°58' W 093°52'1 0.5
2017-Feb-23 07:32N 29°57' W 093°52'1 1.0
2017-Feb-23 06:33N 29°58' W 093°52'0 0.0
2017-Feb-23 05:33N 29°58' W 093°52'4 3.8
2017-Feb-23 04:33N 29°55' W 093°53'55 5.8
2017-Feb-22 19:09N 29°24' W 094°45'3 3.5
2017-Feb-22 18:22N 29°22' W 094°48'7 8.0
2017-Feb-22 17:33N 29°28' W 094°51'8 8.4
2017-Feb-22 16:33N 29°36' W 094°56'8 8.2
2017-Feb-22 15:33N 29°43' W 095°01'5 5.2
2017-Feb-22 14:33N 29°47' W 095°04'0 0.0
2017-Feb-22 13:33N 29°47' W 095°04'0 0.0
2017-Feb-22 12:29N 29°47' W 095°04'2 2.3
2017-Feb-22 11:33N 29°45' W 095°06'1 0.6
2017-Feb-22 10:33N 29°46' W 095°06'0 0.0
2017-Feb-22 02:29N 29°46' W 095°06'0 0.0
2017-Feb-22 01:29N 29°46' W 095°06'0 0.0
2017-Feb-22 00:29N 29°46' W 095°06'0 0.0
2017-Feb-21 23:30N 29°46' W 095°06'0 0.0
2017-Feb-21 22:31N 29°46' W 095°06'0 0.0
2017-Feb-21 21:30N 29°46' W 095°06'0 0.0
2017-Feb-21 20:30N 29°46' W 095°06'0 0.0
2017-Feb-21 19:29N 29°46' W 095°06'0 0.0
2017-Feb-21 18:32N 29°46' W 095°06'0 0.0
2017-Feb-21 17:32N 29°46' W 095°06'0 0.1
2017-Feb-21 16:32N 29°46' W 095°06'2 1.7
2017-Feb-21 15:33N 29°47' W 095°05'0 0.0
2017-Feb-21 14:33N 29°47' W 095°05'1 0.6
2017-Feb-21 13:33N 29°47' W 095°04'0 0.2
2017-Feb-21 12:12N 29°47' W 095°04'3 0.2
2017-Feb-20 21:20N 29°46' W 095°06'0 0.0
2017-Feb-20 20:20N 29°46' W 095°06'0 0.0
2017-Feb-20 19:29N 29°46' W 095°06'0 0.0
2017-Feb-20 18:33N 29°46' W 095°06'1 0.8
2017-Feb-20 17:33N 29°46' W 095°05'0 0.2
2017-Feb-20 16:33N 29°46' W 095°05'1 1.3
2017-Feb-20 15:33N 29°47' W 095°04'6 5.5
2017-Feb-20 14:33N 29°45' W 095°10'2 0.2
2017-Feb-20 02:25N 29°44' W 095°12'0 0.1
2017-Feb-20 01:31N 29°44' W 095°12'0 0.0
2017-Feb-20 00:32N 29°44' W 095°12'0 0.0
2017-Feb-19 23:33N 29°44' W 095°12'0 0.0
2017-Feb-19 22:23N 29°44' W 095°12'0 0.0
2017-Feb-19 21:27N 29°44' W 095°12'0 0.0
2017-Feb-19 20:26N 29°44' W 095°12'0 0.0
2017-Feb-19 19:32N 29°44' W 095°12'0 0.0
2017-Feb-19 16:32N 29°44' W 095°12'0 0.0
2017-Feb-18 21:25N 29°44' W 095°12'0 0.0
2017-Feb-18 20:32N 29°44' W 095°12'0 0.0
2017-Feb-18 19:19N 29°44' W 095°12'0 0.0
2017-Feb-18 18:06N 29°44' W 095°12'0 0.0
2017-Feb-18 17:03N 29°44' W 095°12'0 0.0
2017-Feb-18 14:23N 29°44' W 095°12'0 0.0
2017-Feb-18 13:22N 29°44' W 095°12'31 2.0
2017-Feb-17 21:33N 29°23' W 094°46'1 1.4
2017-Feb-17 20:33N 29°24' W 094°45'0 0.0
2017-Feb-17 19:32N 29°24' W 094°45'0 0.0
2017-Feb-17 18:32N 29°24' W 094°45'0 0.0
2017-Feb-17 17:32N 29°24' W 094°45'0 0.0
2017-Feb-17 16:12N 29°24' W 094°45'0 0.0
2017-Feb-17 15:33N 29°24' W 094°45'0 0.0
2017-Feb-17 14:33N 29°24' W 094°45'0 0.0
2017-Feb-17 13:33N 29°24' W 094°45'67 4.4
2017-Feb-16 22:33N 30°03' W 093°43'5 5.3
2017-Feb-16 21:33N 30°04' W 093°37'5 5.0
2017-Feb-16 20:33N 30°04' W 093°31'5 5.2
2017-Feb-16 19:33N 30°04' W 093°25'4 4.1
2017-Feb-16 18:33N 30°05' W 093°20'4 3.6
2017-Feb-16 17:33N 30°08' W 093°20'0 0.1
2017-Feb-16 16:33N 30°08' W 093°19'0 0.0
2017-Feb-16 15:33N 30°08' W 093°19'0 0.0
2017-Feb-16 14:33N 30°08' W 093°19'0 0.0
2017-Feb-16 13:33N 30°08' W 093°19'0 0.0
2017-Feb-16 12:33N 30°08' W 093°19'0 0.0
2017-Feb-16 11:33N 30°08' W 093°19'0 0.0
2017-Feb-16 10:33N 30°08' W 093°19'0 0.0
2017-Feb-16 09:33N 30°08' W 093°19'0 0.0
2017-Feb-16 08:33N 30°08' W 093°19'0 0.0
2017-Feb-16 07:33N 30°08' W 093°19'0 0.0
2017-Feb-16 06:33N 30°08' W 093°19'0 0.0
2017-Feb-16 05:33N 30°08' W 093°19'0 0.0
2017-Feb-16 04:33N 30°08' W 093°19'0 0.0
2017-Feb-16 03:33N 30°08' W 093°19'0 0.0
2017-Feb-16 02:33N 30°08' W 093°19'0 0.0
2017-Feb-16 01:33N 30°08' W 093°19'0 0.0
2017-Feb-16 00:33N 30°08' W 093°19'0 0.0
2017-Feb-15 23:33N 30°08' W 093°19'0 0.0
2017-Feb-15 22:33N 30°08' W 093°19'0 0.0
2017-Feb-15 21:33N 30°08' W 093°19'0 0.0
2017-Feb-15 20:33N 30°08' W 093°19'0 0.0
2017-Feb-15 19:33N 30°08' W 093°19'0 0.1
2017-Feb-15 18:33N 30°08' W 093°19'0 0.0
2017-Feb-15 17:33N 30°08' W 093°19'0 0.0
2017-Feb-15 16:33N 30°08' W 093°19'0 0.0
2017-Feb-15 15:33N 30°08' W 093°19'4 3.7
2017-Feb-15 14:33N 30°05' W 093°20'0 0.0
2017-Feb-15 13:33N 30°05' W 093°20'0 0.0
2017-Feb-15 12:33N 30°05' W 093°20'0 0.0
2017-Feb-15 11:33N 30°05' W 093°20'0 0.0
2017-Feb-15 10:33N 30°05' W 093°20'0 0.0
2017-Feb-15 09:33N 30°05' W 093°20'0 0.0
2017-Feb-15 08:33N 30°05' W 093°20'0 0.0
2017-Feb-15 07:33N 30°05' W 093°20'0 0.0
2017-Feb-15 06:33N 30°05' W 093°20'0 0.0
2017-Feb-15 05:33N 30°05' W 093°20'0 0.0
2017-Feb-15 04:33N 30°05' W 093°20'0 0.0
2017-Feb-15 03:33N 30°05' W 093°20'0 0.0
2017-Feb-15 02:33N 30°05' W 093°20'0 0.0
2017-Feb-15 01:33N 30°05' W 093°20'2 2.5
2017-Feb-15 00:33N 30°06' W 093°18'2 1.8
2017-Feb-14 23:33N 30°05' W 093°20'1 1.4
2017-Feb-14 22:33N 30°06' W 093°19'0 0.2
2017-Feb-14 21:33N 30°06' W 093°19'2 1.9
2017-Feb-14 20:33N 30°05' W 093°17'0 0.4
2017-Feb-14 19:33N 30°05' W 093°17'0 0.2
2017-Feb-14 18:33N 30°05' W 093°17'2 2.2
2017-Feb-14 17:33N 30°03' W 093°16'5 4.6
2017-Feb-14 16:33N 29°59' W 093°12'5 4.7
2017-Feb-14 15:33N 29°56' W 093°08'5 4.8
2017-Feb-14 14:33N 29°56' W 093°03'  

Dump ship's entire track history